Time,TemperatureC,DewpointC,PressurehPa,WindDirection,WindDirectionDegrees,WindSpeedKMH,WindSpeedGustKMH,Humidity,HourlyPrecipMM,Conditions,Clouds,dailyrainMM,SolarRadiationWatts/m^2,UVIndex,SoftwareType,DateUTC
2026-05-09 00:03:48,7.5,8.7,1007.0,NNE,27,5.4,8.2,80.1,0.0,,,0.0,2,0,n/a,2026-05-08T22:03:48Z
2026-05-09 00:09:45,7.5,8.7,1007.0,ENE,78,7.6,11.8,80.2,0.0,,,0.0,0,0,n/a,2026-05-08T22:09:45Z
2026-05-09 00:12:49,7.5,8.7,1007.0,ESE,112,4.3,4.5,80.5,0.0,,,0.0,2,0,n/a,2026-05-08T22:12:49Z
2026-05-09 00:18:48,7.5,8.6,1007.0,ENE,69,10,14.4,80.3,0.0,,,0.0,2,0,n/a,2026-05-08T22:18:48Z
2026-05-09 00:24:48,7.5,8.6,1007.0,North,9,5.8,8.1,80.3,0.0,,,0.0,2,0,n/a,2026-05-08T22:24:48Z
2026-05-09 00:27:45,7.4,8.6,1006.7,East,90,1.9,2,80.1,0.0,,,0.0,0,0,n/a,2026-05-08T22:27:45Z
2026-05-09 00:33:48,7.3,8.5,1007.0,ENE,71,9.1,9.9,80.1,0.0,,,0.0,2,0,n/a,2026-05-08T22:33:48Z
2026-05-09 00:39:49,7.4,8.6,1006.7,NNE,21,6,7.4,81,0.0,,,0.0,2,0,n/a,2026-05-08T22:39:49Z
2026-05-09 00:42:48,7.3,8.5,1006.7,ENE,77,5.4,5.9,80.6,0.0,,,0.0,0,0,n/a,2026-05-08T22:42:48Z
2026-05-09 00:48:48,7.1,8.6,1006.7,North,355,2.8,3.3,80.5,0.0,,,0.0,2,0,n/a,2026-05-08T22:48:48Z
2026-05-09 00:54:49,7.2,8.5,1007.0,East,97,9.3,12.8,80.7,0.0,,,0.0,2,0,n/a,2026-05-08T22:54:49Z
2026-05-09 00:57:48,7.2,8.5,1007.0,East,90,6,6.3,80.7,0.0,,,0.0,2,0,n/a,2026-05-08T22:57:48Z
2026-05-09 01:00:48,7.3,8.5,1006.7,East,90,6.3,7.2,81.1,0.0,,,0.0,2,0,n/a,2026-05-08T23:00:48Z
2026-05-09 01:09:48,7.1,8.5,1006.7,East,79,4.9,5.9,80.9,0.0,,,0.0,2,0,n/a,2026-05-08T23:09:48Z
2026-05-09 01:12:48,7.1,8.4,1007.0,East,90,5.2,5.2,81,0.0,,,0.0,0,0,n/a,2026-05-08T23:12:48Z
2026-05-09 01:18:48,7.1,8.4,1006.7,East,82,6.6,8.7,81.1,0.0,,,0.0,2,0,n/a,2026-05-08T23:18:48Z
2026-05-09 01:24:49,7,8.4,1006.7,NE,43,1.3,2.6,80.8,0.0,,,0.0,2,0,n/a,2026-05-08T23:24:49Z
2026-05-09 01:27:45,6.8,8.3,1006.7,East,90,5.1,5.2,80.8,0.0,,,0.0,0,0,n/a,2026-05-08T23:27:45Z
2026-05-09 01:33:49,7,8.4,1006.7,ENE,59,6.8,9.6,81.6,0.0,,,0.0,0,0,n/a,2026-05-08T23:33:49Z
2026-05-09 01:39:48,7.1,8.4,1007.0,ENE,63,12,13.2,82.3,0.0,,,0.0,2,0,n/a,2026-05-08T23:39:48Z
2026-05-09 01:42:45,7.1,8.4,1007.0,East,90,12.1,12.2,82.3,0.0,,,0.0,2,0,n/a,2026-05-08T23:42:45Z
2026-05-09 01:48:49,7.2,8.5,1007.0,NE,52,10.7,14.1,82.6,0.0,,,0.0,0,0,n/a,2026-05-08T23:48:49Z
2026-05-09 01:54:49,7.1,8.4,1007.0,ENE,66,6.1,9.7,82.3,0.0,,,0.0,2,0,n/a,2026-05-08T23:54:49Z
2026-05-09 01:57:48,7,8.5,1006.7,East,90,7.1,8.4,82.5,0.0,,,0.0,2,0,n/a,2026-05-08T23:57:48Z
2026-05-09 02:03:48,7,8.4,1007.0,East,86,10.4,15.8,82.6,0.0,,,0.0,2,0,n/a,2026-05-09T00:03:48Z
2026-05-09 02:09:49,7.1,8.4,1006.7,ENE,72,11.4,13.6,82.8,0.0,,,0.0,2,0,n/a,2026-05-09T00:09:49Z
2026-05-09 02:12:45,7.1,8.4,1006.7,ENE,67,10.5,10.5,83,0.0,,,0.0,0,0,n/a,2026-05-09T00:12:45Z
2026-05-09 02:18:48,7,8.4,1006.7,ENE,63,5.1,7.6,82.9,0.0,,,0.0,2,0,n/a,2026-05-09T00:18:48Z
2026-05-09 02:24:49,6.8,8.4,1006.7,East,85,3.7,4.7,82.5,0.0,,,0.0,0,0,n/a,2026-05-09T00:24:49Z
2026-05-09 02:27:49,6.6,8.3,1006.7,North,0,0,0,82.1,0.0,,,0.0,2,0,n/a,2026-05-09T00:27:49Z
2026-05-09 02:33:48,6.3,8.2,1006.7,East,90,0,0,81.8,0.0,,,0.0,2,0,n/a,2026-05-09T00:33:48Z
2026-05-09 02:39:48,6.3,8.1,1006.7,South,180,0.6,1.3,81.5,0.0,,,0.0,2,0,n/a,2026-05-09T00:39:48Z
2026-05-09 02:42:48,6,8,1006.7,SSW,202,0,0,81.2,0.0,,,0.0,0,0,n/a,2026-05-09T00:42:48Z
2026-05-09 02:48:48,5.9,7.8,1006.7,SW,225,1.4,1.6,81,0.0,,,0.0,0,0,n/a,2026-05-09T00:48:48Z
2026-05-09 02:54:49,5.9,7.8,1006.7,WSW,241,2.1,2.6,80.9,0.0,,,0.0,2,0,n/a,2026-05-09T00:54:49Z
2026-05-09 02:57:48,5.9,7.8,1006.5,West,263,0.9,1.1,81,0.0,,,0.0,2,0,n/a,2026-05-09T00:57:48Z
2026-05-09 03:03:45,5.9,7.7,1006.5,ESE,111,0.8,1.3,81.2,0.0,,,0.0,0,0,n/a,2026-05-09T01:03:45Z
2026-05-09 03:09:48,5.7,7.6,1006.7,East,81,0.9,1.3,81,0.0,,,0.0,2,0,n/a,2026-05-09T01:09:48Z
2026-05-09 03:12:48,5.9,7.6,1006.5,ESE,112,3.2,3.3,81.8,0.0,,,0.0,0,0,n/a,2026-05-09T01:12:48Z
2026-05-09 03:18:45,5.7,7.7,1006.5,East,90,0,0,82.5,0.0,,,0.0,0,0,n/a,2026-05-09T01:18:45Z
2026-05-09 03:24:48,5.7,7.6,1006.5,West,270,0.9,1.9,82.1,0.0,,,0.0,2,0,n/a,2026-05-09T01:24:48Z
2026-05-09 03:27:49,6.2,7.5,1006.5,NE,45,0.8,1.1,82.5,0.0,,,0.0,2,0,n/a,2026-05-09T01:27:49Z
2026-05-09 03:33:48,5.9,7.6,1006.5,SW,217,2.7,3.2,82.4,0.0,,,0.0,2,0,n/a,2026-05-09T01:33:48Z
2026-05-09 03:39:48,5.8,7.6,1006.5,North,1,2.7,3.3,82.9,0.0,,,0.0,2,0,n/a,2026-05-09T01:39:48Z
2026-05-09 03:42:49,5.8,7.6,1006.5,WNW,292,0,0,82.8,0.0,,,0.0,2,0,n/a,2026-05-09T01:42:49Z
2026-05-09 03:48:48,5.8,7.6,1006.5,WNW,300,1.2,1.6,82.9,0.0,,,0.0,2,0,n/a,2026-05-09T01:48:48Z
2026-05-09 03:54:45,5.8,7.5,1006.5,ENE,78,2.1,4.6,83.1,0.0,,,0.0,2,0,n/a,2026-05-09T01:54:45Z
2026-05-09 03:57:48,5.9,7.7,1006.7,South,180,1.2,1.3,84,0.0,,,0.0,0,0,n/a,2026-05-09T01:57:48Z
2026-05-09 04:03:48,5.6,7.7,1006.7,ESE,112,0.7,1.3,83.3,0.0,,,0.0,2,0,n/a,2026-05-09T02:03:48Z
2026-05-09 04:09:45,5.2,7.4,1006.7,West,270,1.8,3.3,82.6,0.0,,,0.0,0,0,n/a,2026-05-09T02:09:45Z
2026-05-09 04:12:49,5.1,7.2,1006.5,SSE,157,0,0,82.5,0.0,,,0.0,2,0,n/a,2026-05-09T02:12:49Z
2026-05-09 04:18:48,5.1,7.2,1006.5,East,90,0.1,0.5,82.7,0.0,,,0.0,2,0,n/a,2026-05-09T02:18:48Z
2026-05-09 04:24:49,5.8,7.6,1006.5,NE,47,5.4,8.4,84.8,0.0,,,0.0,2,0,n/a,2026-05-09T02:24:49Z
2026-05-09 04:27:45,5.8,7.9,1006.5,East,90,2.6,2.6,85.4,0.0,,,0.0,0,0,n/a,2026-05-09T02:27:45Z
2026-05-09 04:33:48,5.9,7.8,1006.5,East,99,4.2,5.4,85.2,0.0,,,0.0,2,0,n/a,2026-05-09T02:33:48Z
2026-05-09 04:39:49,5.9,7.9,1006.5,NE,46,3.4,7.4,85.3,0.0,,,0.0,2,0,n/a,2026-05-09T02:39:49Z
2026-05-09 04:42:48,5.9,7.8,1006.5,NE,45,0.9,1.3,85.2,0.0,,,0.0,0,0,n/a,2026-05-09T02:42:48Z
2026-05-09 04:48:49,5.8,7.8,1006.5,ENE,75,1.7,3.9,85,0.0,,,0.0,2,0,n/a,2026-05-09T02:48:49Z
2026-05-09 04:54:49,5.8,7.8,1006.5,SSE,157,0.6,1.3,84.6,0.0,,,0.0,2,0,n/a,2026-05-09T02:54:49Z
2026-05-09 04:57:48,5.4,7.7,1006.2,SSE,147,1.4,1.6,84.7,0.0,,,0.0,2,0,n/a,2026-05-09T02:57:48Z
2026-05-09 05:03:49,5.3,7.5,1006.5,SSE,162,0.6,1.3,84.1,0.0,,,0.0,2,0,n/a,2026-05-09T03:03:49Z
2026-05-09 05:09:48,5.2,7.5,1006.5,ESE,119,2.2,3.3,84.3,0.0,,,0.0,2,0,n/a,2026-05-09T03:09:48Z
2026-05-09 05:12:49,5.3,7.6,1006.5,ENE,78,3.1,3.2,84.6,0.0,,,0.0,2,0,n/a,2026-05-09T03:12:49Z
2026-05-09 05:18:45,5.5,7.6,1006.5,East,90,6.1,7.2,85.3,0.0,,,0.0,2,0,n/a,2026-05-09T03:18:45Z
2026-05-09 05:24:48,5.7,7.8,1006.5,East,90,5,7.2,86.2,0.0,,,0.0,2,0,n/a,2026-05-09T03:24:48Z
2026-05-09 05:27:49,5.6,7.8,1006.5,NE,46,1.2,1.3,86.1,0.0,,,0.0,2,0,n/a,2026-05-09T03:27:49Z
2026-05-09 05:33:48,5.5,7.8,1006.2,ENE,77,0.6,1.3,85.7,0.0,,,0.0,4,0,n/a,2026-05-09T03:33:48Z
2026-05-09 05:39:48,5.5,7.8,1006.2,East,96,0.8,1.1,85.6,0.0,,,0.0,6,0,n/a,2026-05-09T03:39:48Z
2026-05-09 05:42:48,5.3,7.6,1006.2,SE,135,0,0,85,0.0,,,0.0,6,0,n/a,2026-05-09T03:42:48Z
2026-05-09 05:48:48,5.4,7.5,1006.2,SE,135,0.1,0.5,85.1,0.0,,,0.0,8,0,n/a,2026-05-09T03:48:48Z
2026-05-09 05:54:45,5.4,7.4,1006.2,East,100,2.2,3.2,85.1,0.0,,,0.0,10,0,n/a,2026-05-09T03:54:45Z
2026-05-09 05:57:48,5.6,7.5,1006.2,SE,135,1.2,1.3,85.4,0.0,,,0.0,12,0,n/a,2026-05-09T03:57:48Z
2026-05-09 06:03:48,5.7,7.6,1006.2,SE,137,2.2,2.6,85.9,0.0,,,0.0,14,0,n/a,2026-05-09T04:03:48Z
2026-05-09 06:09:48,5.7,7.6,1006.2,SSE,157,0.7,1.6,86,0.0,,,0.0,16,0,n/a,2026-05-09T04:09:48Z
2026-05-09 06:12:48,5.6,7.6,1006.2,SE,135,0,0,85.8,0.0,,,0.0,18,0,n/a,2026-05-09T04:12:48Z
2026-05-09 06:18:48,5.6,7.6,1006.2,SSW,208,0.5,0.7,85.6,0.0,,,0.0,22,0,n/a,2026-05-09T04:18:48Z
2026-05-09 06:24:48,6,7.7,1006.2,SSE,157,0,0,86.4,0.0,,,0.0,30,0,n/a,2026-05-09T04:24:48Z
2026-05-09 06:27:45,6.4,7.8,1006.2,SE,135,1.2,1.3,86.6,0.0,,,0.0,34,0,n/a,2026-05-09T04:27:45Z
2026-05-09 06:33:48,7,8.1,1006.2,SSE,157,0,0,87.2,0.0,,,0.0,44,0,n/a,2026-05-09T04:33:48Z
2026-05-09 06:39:49,7.3,8.4,1006.2,SE,145,0.3,0.6,87.3,0.0,,,0.0,36,0,n/a,2026-05-09T04:39:49Z
2026-05-09 06:42:48,7.2,8.6,1006.2,SW,225,0.3,0.7,87,0.0,,,0.0,44,0,n/a,2026-05-09T04:42:48Z
2026-05-09 06:48:48,7.6,8.7,1006.5,West,270,0.2,0.7,86.8,0.0,,,0.0,44,0,n/a,2026-05-09T04:48:48Z
2026-05-09 06:54:48,8.1,9.1,1006.5,West,270,0,0,87.5,0.0,,,0.0,58,0,n/a,2026-05-09T04:54:48Z
2026-05-09 06:57:49,8.3,9.3,1006.5,SW,217,1.1,1.5,87.5,0.0,,,0.0,52,0,n/a,2026-05-09T04:57:49Z
2026-05-09 07:03:48,8.7,9.6,1006.5,South,182,0.8,1.3,87.5,0.0,,,0.0,108,0,n/a,2026-05-09T05:03:48Z